This is the latest recevied weather packets stored in our database for station/object EA2BK-11. If no packets are shown the sender has not sent any weather packets the latest 1 day(s).
| Time | Temp. | Humidity | Pressure | Rain* | Wind** | Luminosity | Snow |
|---|---|---|---|---|---|---|---|
| 1777829081 | 21.11° C | 58% | 943 hPa | - | - | - | - |
| 1777828176 | 21.11° C | 59% | 943 hPa | - | - | - | - |
| 1777827271 | 19.44° C | 65% | 943 hPa | - | - | - | - |
| 1777826365 | 19.44° C | 64% | 943 hPa | - | - | - | - |
| 1777825460 | 18.89° C | 64% | 943 hPa | - | - | - | - |
| 1777824555 | 18.33° C | 65% | 943 hPa | - | - | - | - |
| 1777823650 | 18.33° C | 65% | 943 hPa | - | - | - | - |
| 1777822745 | 18.89° C | 64% | 943 hPa | - | - | - | - |
| 1777822547 | 18.89° C | 63% | 943 hPa | - | - | - | - |
| 1777821839 | 18.89° C | 63% | 943 hPa | - | - | - | - |
| 1777820934 | 21.11° C | 61% | 943 hPa | - | - | - | - |
| 1777820029 | 22.78° C | 57% | 943 hPa | - | - | - | - |
| 1777819124 | 23.89° C | 57% | 944 hPa | - | - | - | - |
| 1777818219 | 25° C | 54% | 944 hPa | - | - | - | - |
| 1777817314 | 22.78° C | 58% | 944 hPa | - | - | - | - |
| 1777816408 | 18.33° C | 68% | 944 hPa | - | - | - | - |
| 1777815503 | 17.78° C | 69% | 944 hPa | - | - | - | - |
| 1777814598 | 17.22° C | 71% | 944 hPa | - | - | - | - |
| 1777813693 | 16.67° C | 71% | 945 hPa | - | - | - | - |
| 1777812788 | 16.11° C | 72% | 945 hPa | - | - | - | - |
| 1777811882 | 15.56° C | 74% | 945 hPa | - | - | - | - |
| 1777810977 | 15° C | 76% | 945 hPa | - | - | - | - |
| 1777810072 | 14.44° C | 75% | 945 hPa | - | - | - | - |
| 1777809167 | 14.44° C | 75% | 945 hPa | - | - | - | - |
| 1777808262 | 16.11° C | 73% | 945 hPa | - | - | - | - |
* Rain since midnight (hover to see other rain measurements)
** Current wind speed in m/s (hover to see current wind gust speed)